Terminal Aerodrome Forecast
Issued by NWS

Home | Current Version | Previous Version | Text Only | Print | Product List | Glossary On
Versions: 1 2 3 4 5 6 7 8 9 10 11 12 13
000
FTUS45 KTFX 011500 AAA
TAFHLN
TAF AMD
KHLN 011540Z 0116/0212 VRB04KT P6SM SKC
     FM012200 26006KT P6SM SCT180
     FM020700 VRB04KT P6SM SCT080 BKN120=

USA.gov is the U.S. government's official web portal to all federal, state and local government web resources and services.